sensor_id;sensor_type;location;lat;lon;timestamp;P1;durP1;ratioP1;P2;durP2;ratioP2
13421;SDS011;6782;55.904;13.396;2023-02-28T00:00:25;3.90;;;3.50;;
13421;SDS011;6782;55.904;13.396;2023-02-28T00:02:52;4.27;;;3.53;;
13421;SDS011;6782;55.904;13.396;2023-02-28T00:05:20;4.30;;;3.90;;
13421;SDS011;6782;55.904;13.396;2023-02-28T00:07:49;4.97;;;4.47;;
13421;SDS011;6782;55.904;13.396;2023-02-28T00:10:17;5.43;;;4.87;;
13421;SDS011;6782;55.904;13.396;2023-02-28T00:12:46;7.37;;;5.33;;
13421;SDS011;6782;55.904;13.396;2023-02-28T00:15:15;9.80;;;7.53;;
13421;SDS011;6782;55.904;13.396;2023-02-28T00:17:42;8.27;;;7.30;;
13421;SDS011;6782;55.904;13.396;2023-02-28T00:20:11;12.23;;;8.47;;
13421;SDS011;6782;55.904;13.396;2023-02-28T00:22:39;8.00;;;6.37;;
13421;SDS011;6782;55.904;13.396;2023-02-28T00:25:08;8.03;;;6.30;;
13421;SDS011;6782;55.904;13.396;2023-02-28T00:27:36;10.03;;;6.23;;
13421;SDS011;6782;55.904;13.396;2023-02-28T00:30:06;7.80;;;6.07;;
13421;SDS011;6782;55.904;13.396;2023-02-28T00:32:37;6.27;;;5.40;;
13421;SDS011;6782;55.904;13.396;2023-02-28T00:35:05;7.20;;;5.67;;
13421;SDS011;6782;55.904;13.396;2023-02-28T00:37:33;6.77;;;4.80;;
13421;SDS011;6782;55.904;13.396;2023-02-28T00:40:00;5.57;;;4.97;;
13421;SDS011;6782;55.904;13.396;2023-02-28T00:42:30;5.20;;;4.70;;
13421;SDS011;6782;55.904;13.396;2023-02-28T00:44:57;5.33;;;4.60;;
13421;SDS011;6782;55.904;13.396;2023-02-28T00:47:31;3.97;;;3.60;;
13421;SDS011;6782;55.904;13.396;2023-02-28T00:50:00;4.47;;;3.90;;
13421;SDS011;6782;55.904;13.396;2023-02-28T00:52:27;3.87;;;3.47;;
13421;SDS011;6782;55.904;13.396;2023-02-28T00:54:54;3.40;;;3.10;;
13421;SDS011;6782;55.904;13.396;2023-02-28T00:57:21;4.40;;;3.23;;
13421;SDS011;6782;55.904;13.396;2023-02-28T00:59:48;5.13;;;3.73;;
13421;SDS011;6782;55.904;13.396;2023-02-28T01:02:18;3.77;;;3.33;;
13421;SDS011;6782;55.904;13.396;2023-02-28T01:04:45;5.17;;;3.37;;
13421;SDS011;6782;55.904;13.396;2023-02-28T01:07:14;3.90;;;3.50;;
13421;SDS011;6782;55.904;13.396;2023-02-28T01:09:43;3.20;;;2.90;;
13421;SDS011;6782;55.904;13.396;2023-02-28T01:12:10;3.50;;;2.90;;
13421;SDS011;6782;55.904;13.396;2023-02-28T01:14:37;3.20;;;2.57;;
13421;SDS011;6782;55.904;13.396;2023-02-28T01:17:04;2.60;;;2.20;;
13421;SDS011;6782;55.904;13.396;2023-02-28T01:19:31;3.30;;;2.70;;
13421;SDS011;6782;55.904;13.396;2023-02-28T01:22:00;3.10;;;2.53;;
13421;SDS011;6782;55.904;13.396;2023-02-28T01:24:29;3.60;;;2.97;;
13421;SDS011;6782;55.904;13.396;2023-02-28T01:26:57;3.53;;;2.83;;
13421;SDS011;6782;55.904;13.396;2023-02-28T01:29:24;3.53;;;3.00;;
13421;SDS011;6782;55.904;13.396;2023-02-28T01:31:51;3.83;;;3.17;;
13421;SDS011;6782;55.904;13.396;2023-02-28T01:34:18;4.30;;;3.90;;
13421;SDS011;6782;55.904;13.396;2023-02-28T01:36:45;5.43;;;4.57;;
13421;SDS011;6782;55.904;13.396;2023-02-28T01:39:12;4.83;;;4.00;;
13421;SDS011;6782;55.904;13.396;2023-02-28T01:41:41;5.20;;;4.30;;
13421;SDS011;6782;55.904;13.396;2023-02-28T01:47:09;5.30;;;4.27;;
13421;SDS011;6782;55.904;13.396;2023-02-28T01:49:37;7.83;;;5.57;;
13421;SDS011;6782;55.904;13.396;2023-02-28T01:52:05;9.37;;;6.73;;
13421;SDS011;6782;55.904;13.396;2023-02-28T01:54:34;7.03;;;5.80;;
13421;SDS011;6782;55.904;13.396;2023-02-28T01:57:04;5.07;;;4.30;;
13421;SDS011;6782;55.904;13.396;2023-02-28T01:59:34;4.73;;;4.23;;
13421;SDS011;6782;55.904;13.396;2023-02-28T02:02:05;5.13;;;4.50;;
13421;SDS011;6782;55.904;13.396;2023-02-28T02:04:34;4.53;;;4.00;;
13421;SDS011;6782;55.904;13.396;2023-02-28T02:07:05;4.20;;;3.80;;
13421;SDS011;6782;55.904;13.396;2023-02-28T02:09:33;5.10;;;4.13;;
13421;SDS011;6782;55.904;13.396;2023-02-28T02:12:00;6.03;;;4.27;;
13421;SDS011;6782;55.904;13.396;2023-02-28T02:14:45;5.53;;;4.53;;
13421;SDS011;6782;55.904;13.396;2023-02-28T02:17:27;5.27;;;4.77;;
13421;SDS011;6782;55.904;13.396;2023-02-28T02:20:07;6.57;;;5.20;;
13421;SDS011;6782;55.904;13.396;2023-02-28T02:26:02;5.33;;;4.70;;
13421;SDS011;6782;55.904;13.396;2023-02-28T02:28:59;8.00;;;5.57;;
13421;SDS011;6782;55.904;13.396;2023-02-28T02:35:10;5.63;;;5.03;;
13421;SDS011;6782;55.904;13.396;2023-02-28T02:37:42;5.50;;;4.77;;
13421;SDS011;6782;55.904;13.396;2023-02-28T02:40:14;5.43;;;4.03;;
13421;SDS011;6782;55.904;13.396;2023-02-28T02:42:47;5.53;;;4.73;;
13421;SDS011;6782;55.904;13.396;2023-02-28T02:45:19;6.83;;;5.20;;
13421;SDS011;6782;55.904;13.396;2023-02-28T02:47:52;6.03;;;4.30;;
13421;SDS011;6782;55.904;13.396;2023-02-28T02:50:24;4.67;;;4.10;;
13421;SDS011;6782;55.904;13.396;2023-02-28T02:52:57;4.13;;;3.73;;
13421;SDS011;6782;55.904;13.396;2023-02-28T02:55:27;5.77;;;4.60;;
13421;SDS011;6782;55.904;13.396;2023-02-28T02:57:57;5.33;;;4.13;;
13421;SDS011;6782;55.904;13.396;2023-02-28T03:00:29;5.23;;;3.87;;
13421;SDS011;6782;55.904;13.396;2023-02-28T03:02:59;5.03;;;4.23;;
13421;SDS011;6782;55.904;13.396;2023-02-28T03:05:30;4.33;;;3.80;;
13421;SDS011;6782;55.904;13.396;2023-02-28T03:08:03;4.10;;;3.70;;
13421;SDS011;6782;55.904;13.396;2023-02-28T03:10:33;4.43;;;3.93;;
13421;SDS011;6782;55.904;13.396;2023-02-28T03:16:19;7.07;;;5.13;;
13421;SDS011;6782;55.904;13.396;2023-02-28T03:18:57;6.97;;;4.37;;
13421;SDS011;6782;55.904;13.396;2023-02-28T03:21:36;6.23;;;3.97;;
13421;SDS011;6782;55.904;13.396;2023-02-28T03:24:10;6.47;;;4.50;;
13421;SDS011;6782;55.904;13.396;2023-02-28T03:26:45;6.43;;;4.77;;
13421;SDS011;6782;55.904;13.396;2023-02-28T03:29:18;6.90;;;4.03;;
13421;SDS011;6782;55.904;13.396;2023-02-28T03:31:54;4.80;;;4.23;;
13421;SDS011;6782;55.904;13.396;2023-02-28T03:34:29;5.37;;;4.00;;
13421;SDS011;6782;55.904;13.396;2023-02-28T03:37:03;3.37;;;2.83;;
13421;SDS011;6782;55.904;13.396;2023-02-28T03:39:36;4.73;;;3.70;;
13421;SDS011;6782;55.904;13.396;2023-02-28T03:42:08;5.33;;;3.90;;
13421;SDS011;6782;55.904;13.396;2023-02-28T03:44:40;5.27;;;3.43;;
13421;SDS011;6782;55.904;13.396;2023-02-28T03:47:12;4.67;;;4.13;;
13421;SDS011;6782;55.904;13.396;2023-02-28T03:49:44;4.77;;;3.67;;
13421;SDS011;6782;55.904;13.396;2023-02-28T03:52:17;5.77;;;4.07;;
13421;SDS011;6782;55.904;13.396;2023-02-28T03:54:47;4.70;;;4.00;;
13421;SDS011;6782;55.904;13.396;2023-02-28T03:57:18;4.47;;;3.53;;
13421;SDS011;6782;55.904;13.396;2023-02-28T03:59:52;4.03;;;3.63;;
13421;SDS011;6782;55.904;13.396;2023-02-28T04:02:23;4.50;;;3.90;;
13421;SDS011;6782;55.904;13.396;2023-02-28T04:04:50;4.53;;;3.73;;
13421;SDS011;6782;55.904;13.396;2023-02-28T04:07:18;4.57;;;3.67;;
13421;SDS011;6782;55.904;13.396;2023-02-28T04:09:44;4.60;;;3.63;;
13421;SDS011;6782;55.904;13.396;2023-02-28T04:12:11;5.37;;;4.87;;
13421;SDS011;6782;55.904;13.396;2023-02-28T04:14:38;6.40;;;4.47;;
13421;SDS011;6782;55.904;13.396;2023-02-28T04:17:05;4.50;;;4.00;;
13421;SDS011;6782;55.904;13.396;2023-02-28T04:19:32;4.87;;;3.83;;
13421;SDS011;6782;55.904;13.396;2023-02-28T04:22:00;4.73;;;4.20;;
13421;SDS011;6782;55.904;13.396;2023-02-28T04:24:28;4.17;;;3.70;;
13421;SDS011;6782;55.904;13.396;2023-02-28T04:26:55;5.07;;;3.47;;
13421;SDS011;6782;55.904;13.396;2023-02-28T04:29:24;4.83;;;3.60;;
13421;SDS011;6782;55.904;13.396;2023-02-28T04:31:52;4.27;;;3.73;;
13421;SDS011;6782;55.904;13.396;2023-02-28T04:34:19;6.03;;;4.20;;
13421;SDS011;6782;55.904;13.396;2023-02-28T04:36:48;4.50;;;4.07;;
13421;SDS011;6782;55.904;13.396;2023-02-28T04:39:19;5.50;;;4.43;;
13421;SDS011;6782;55.904;13.396;2023-02-28T04:41:47;6.73;;;4.07;;
13421;SDS011;6782;55.904;13.396;2023-02-28T04:44:14;4.57;;;3.80;;
13421;SDS011;6782;55.904;13.396;2023-02-28T04:46:42;8.47;;;4.00;;
13421;SDS011;6782;55.904;13.396;2023-02-28T04:49:10;5.03;;;4.07;;
13421;SDS011;6782;55.904;13.396;2023-02-28T04:51:38;7.07;;;4.23;;
13421;SDS011;6782;55.904;13.396;2023-02-28T04:54:05;5.17;;;4.27;;
13421;SDS011;6782;55.904;13.396;2023-02-28T04:56:32;4.53;;;3.80;;
13421;SDS011;6782;55.904;13.396;2023-02-28T04:59:01;8.40;;;4.60;;
13421;SDS011;6782;55.904;13.396;2023-02-28T05:01:29;7.23;;;4.73;;
13421;SDS011;6782;55.904;13.396;2023-02-28T05:03:58;4.50;;;3.80;;
13421;SDS011;6782;55.904;13.396;2023-02-28T05:06:28;5.43;;;4.13;;
13421;SDS011;6782;55.904;13.396;2023-02-28T05:08:56;5.97;;;4.20;;
13421;SDS011;6782;55.904;13.396;2023-02-28T05:11:24;4.70;;;3.70;;
13421;SDS011;6782;55.904;13.396;2023-02-28T05:13:54;5.30;;;3.87;;
13421;SDS011;6782;55.904;13.396;2023-02-28T05:16:23;6.80;;;4.27;;
13421;SDS011;6782;55.904;13.396;2023-02-28T05:18:49;6.23;;;4.83;;
13421;SDS011;6782;55.904;13.396;2023-02-28T05:21:26;5.77;;;4.87;;
13421;SDS011;6782;55.904;13.396;2023-02-28T05:23:55;9.83;;;5.97;;
13421;SDS011;6782;55.904;13.396;2023-02-28T05:26:24;7.80;;;5.53;;
13421;SDS011;6782;55.904;13.396;2023-02-28T05:28:51;6.63;;;5.43;;
13421;SDS011;6782;55.904;13.396;2023-02-28T05:31:19;9.37;;;6.10;;
13421;SDS011;6782;55.904;13.396;2023-02-28T05:33:48;11.37;;;6.03;;
13421;SDS011;6782;55.904;13.396;2023-02-28T05:36:15;25.20;;;9.20;;
13421;SDS011;6782;55.904;13.396;2023-02-28T05:38:42;25.97;;;12.53;;
13421;SDS011;6782;55.904;13.396;2023-02-28T05:41:09;40.20;;;14.93;;
13421;SDS011;6782;55.904;13.396;2023-02-28T05:43:37;29.97;;;14.53;;
13421;SDS011;6782;55.904;13.396;2023-02-28T05:46:05;56.90;;;18.20;;
13421;SDS011;6782;55.904;13.396;2023-02-28T05:48:32;49.33;;;17.07;;
13421;SDS011;6782;55.904;13.396;2023-02-28T05:51:01;60.23;;;19.27;;
13421;SDS011;6782;55.904;13.396;2023-02-28T05:53:29;56.20;;;18.83;;
13421;SDS011;6782;55.904;13.396;2023-02-28T05:55:56;50.87;;;18.13;;
13421;SDS011;6782;55.904;13.396;2023-02-28T05:58:23;63.47;;;20.53;;
13421;SDS011;6782;55.904;13.396;2023-02-28T06:00:54;54.77;;;19.83;;
13421;SDS011;6782;55.904;13.396;2023-02-28T06:03:21;56.73;;;19.10;;
13421;SDS011;6782;55.904;13.396;2023-02-28T06:05:48;53.13;;;19.50;;
13421;SDS011;6782;55.904;13.396;2023-02-28T06:08:16;44.93;;;18.17;;
13421;SDS011;6782;55.904;13.396;2023-02-28T06:10:44;66.63;;;19.33;;
13421;SDS011;6782;55.904;13.396;2023-02-28T06:13:12;60.90;;;19.37;;
13421;SDS011;6782;55.904;13.396;2023-02-28T06:15:39;80.60;;;19.90;;
13421;SDS011;6782;55.904;13.396;2023-02-28T06:18:06;86.83;;;21.03;;
13421;SDS011;6782;55.904;13.396;2023-02-28T06:20:33;83.43;;;19.93;;
13421;SDS011;6782;55.904;13.396;2023-02-28T06:23:01;95.13;;;22.97;;
13421;SDS011;6782;55.904;13.396;2023-02-28T06:25:30;132.30;;;24.40;;
13421;SDS011;6782;55.904;13.396;2023-02-28T06:27:57;152.93;;;27.33;;
13421;SDS011;6782;55.904;13.396;2023-02-28T06:30:25;82.13;;;21.77;;
13421;SDS011;6782;55.904;13.396;2023-02-28T06:32:53;108.07;;;22.77;;
13421;SDS011;6782;55.904;13.396;2023-02-28T06:35:21;71.67;;;23.67;;
13421;SDS011;6782;55.904;13.396;2023-02-28T06:37:48;66.63;;;19.47;;
13421;SDS011;6782;55.904;13.396;2023-02-28T06:40:16;28.90;;;17.43;;
13421;SDS011;6782;55.904;13.396;2023-02-28T06:42:45;45.80;;;19.10;;
13421;SDS011;6782;55.904;13.396;2023-02-28T06:45:12;56.50;;;19.17;;
13421;SDS011;6782;55.904;13.396;2023-02-28T06:47:59;69.63;;;20.70;;
13421;SDS011;6782;55.904;13.396;2023-02-28T06:50:46;38.20;;;18.83;;
13421;SDS011;6782;55.904;13.396;2023-02-28T06:53:33;36.83;;;16.80;;
13421;SDS011;6782;55.904;13.396;2023-02-28T06:56:21;29.50;;;17.23;;
13421;SDS011;6782;55.904;13.396;2023-02-28T06:59:10;30.00;;;18.93;;
13421;SDS011;6782;55.904;13.396;2023-02-28T07:01:57;49.50;;;19.30;;
13421;SDS011;6782;55.904;13.396;2023-02-28T07:04:44;98.07;;;24.50;;
13421;SDS011;6782;55.904;13.396;2023-02-28T07:07:32;53.60;;;19.60;;
13421;SDS011;6782;55.904;13.396;2023-02-28T07:10:21;71.53;;;22.53;;
13421;SDS011;6782;55.904;13.396;2023-02-28T07:13:09;233.90;;;40.23;;
13421;SDS011;6782;55.904;13.396;2023-02-28T07:15:58;97.37;;;22.83;;
13421;SDS011;6782;55.904;13.396;2023-02-28T07:18:46;57.37;;;20.00;;
13421;SDS011;6782;55.904;13.396;2023-02-28T07:21:34;47.70;;;18.93;;
13421;SDS011;6782;55.904;13.396;2023-02-28T07:24:21;132.87;;;24.67;;
13421;SDS011;6782;55.904;13.396;2023-02-28T07:27:11;40.57;;;17.13;;
13421;SDS011;6782;55.904;13.396;2023-02-28T07:29:58;57.77;;;17.50;;
13421;SDS011;6782;55.904;13.396;2023-02-28T07:32:48;51.60;;;17.13;;
13421;SDS011;6782;55.904;13.396;2023-02-28T07:35:35;81.87;;;21.57;;
13421;SDS011;6782;55.904;13.396;2023-02-28T07:38:23;55.77;;;18.33;;
13421;SDS011;6782;55.904;13.396;2023-02-28T07:41:10;71.43;;;18.20;;
13421;SDS011;6782;55.904;13.396;2023-02-28T07:43:58;46.67;;;16.10;;
13421;SDS011;6782;55.904;13.396;2023-02-28T07:46:45;97.03;;;20.80;;
13421;SDS011;6782;55.904;13.396;2023-02-28T07:49:34;41.27;;;15.70;;
13421;SDS011;6782;55.904;13.396;2023-02-28T07:52:23;30.73;;;15.97;;
13421;SDS011;6782;55.904;13.396;2023-02-28T07:55:10;23.07;;;14.53;;
13421;SDS011;6782;55.904;13.396;2023-02-28T07:57:59;23.90;;;15.03;;
13421;SDS011;6782;55.904;13.396;2023-02-28T08:00:46;30.90;;;15.27;;
13421;SDS011;6782;55.904;13.396;2023-02-28T08:03:33;48.97;;;15.57;;
13421;SDS011;6782;55.904;13.396;2023-02-28T08:06:22;32.90;;;14.53;;
13421;SDS011;6782;55.904;13.396;2023-02-28T08:09:11;33.10;;;15.30;;
13421;SDS011;6782;55.904;13.396;2023-02-28T08:11:58;20.53;;;14.27;;
13421;SDS011;6782;55.904;13.396;2023-02-28T08:14:45;23.10;;;14.13;;
13421;SDS011;6782;55.904;13.396;2023-02-28T08:17:32;27.27;;;16.07;;
13421;SDS011;6782;55.904;13.396;2023-02-28T08:20:19;43.93;;;17.13;;
13421;SDS011;6782;55.904;13.396;2023-02-28T08:23:08;37.90;;;17.93;;
13421;SDS011;6782;55.904;13.396;2023-02-28T08:25:55;26.20;;;16.53;;
13421;SDS011;6782;55.904;13.396;2023-02-28T08:28:43;20.23;;;16.53;;
13421;SDS011;6782;55.904;13.396;2023-02-28T08:31:30;26.37;;;16.30;;
13421;SDS011;6782;55.904;13.396;2023-02-28T08:34:17;32.00;;;16.47;;
13421;SDS011;6782;55.904;13.396;2023-02-28T08:37:05;18.63;;;13.73;;
13421;SDS011;6782;55.904;13.396;2023-02-28T08:39:53;27.50;;;16.97;;
13421;SDS011;6782;55.904;13.396;2023-02-28T08:42:40;22.50;;;17.93;;
13421;SDS011;6782;55.904;13.396;2023-02-28T08:45:27;20.30;;;16.63;;
13421;SDS011;6782;55.904;13.396;2023-02-28T08:48:15;26.67;;;17.07;;
13421;SDS011;6782;55.904;13.396;2023-02-28T08:51:03;25.73;;;16.63;;
13421;SDS011;6782;55.904;13.396;2023-02-28T08:53:52;27.13;;;18.10;;
13421;SDS011;6782;55.904;13.396;2023-02-28T08:56:41;23.20;;;18.03;;
13421;SDS011;6782;55.904;13.396;2023-02-28T08:59:28;22.27;;;17.13;;
13421;SDS011;6782;55.904;13.396;2023-02-28T09:02:16;23.63;;;18.47;;
13421;SDS011;6782;55.904;13.396;2023-02-28T09:05:04;25.83;;;17.77;;
13421;SDS011;6782;55.904;13.396;2023-02-28T09:07:51;22.43;;;18.07;;
13421;SDS011;6782;55.904;13.396;2023-02-28T09:10:38;21.77;;;17.67;;
13421;SDS011;6782;55.904;13.396;2023-02-28T09:13:27;22.83;;;17.70;;
13421;SDS011;6782;55.904;13.396;2023-02-28T09:16:15;26.03;;;19.43;;
13421;SDS011;6782;55.904;13.396;2023-02-28T09:19:03;26.70;;;19.77;;
13421;SDS011;6782;55.904;13.396;2023-02-28T09:21:50;26.03;;;19.20;;
13421;SDS011;6782;55.904;13.396;2023-02-28T09:24:38;27.10;;;20.13;;
13421;SDS011;6782;55.904;13.396;2023-02-28T09:27:25;26.17;;;20.37;;
13421;SDS011;6782;55.904;13.396;2023-02-28T09:30:14;23.27;;;19.90;;
13421;SDS011;6782;55.904;13.396;2023-02-28T09:33:01;26.90;;;21.03;;
13421;SDS011;6782;55.904;13.396;2023-02-28T09:35:49;23.37;;;20.63;;
13421;SDS011;6782;55.904;13.396;2023-02-28T09:38:37;23.13;;;19.77;;
13421;SDS011;6782;55.904;13.396;2023-02-28T09:41:26;26.13;;;22.57;;
13421;SDS011;6782;55.904;13.396;2023-02-28T09:44:19;25.50;;;21.13;;
13421;SDS011;6782;55.904;13.396;2023-02-28T09:47:14;23.87;;;20.50;;
13421;SDS011;6782;55.904;13.396;2023-02-28T09:50:11;27.07;;;21.27;;
13421;SDS011;6782;55.904;13.396;2023-02-28T09:53:11;23.50;;;19.37;;
13421;SDS011;6782;55.904;13.396;2023-02-28T09:56:06;21.27;;;18.97;;
13421;SDS011;6782;55.904;13.396;2023-02-28T09:58:56;23.27;;;19.60;;
13421;SDS011;6782;55.904;13.396;2023-02-28T10:01:50;22.20;;;18.10;;
13421;SDS011;6782;55.904;13.396;2023-02-28T10:04:49;21.97;;;18.20;;
13421;SDS011;6782;55.904;13.396;2023-02-28T10:07:48;22.20;;;18.07;;
13421;SDS011;6782;55.904;13.396;2023-02-28T10:10:43;21.43;;;18.17;;
13421;SDS011;6782;55.904;13.396;2023-02-28T10:13:33;25.10;;;18.90;;
13421;SDS011;6782;55.904;13.396;2023-02-28T10:16:25;25.40;;;19.83;;
13421;SDS011;6782;55.904;13.396;2023-02-28T10:19:19;21.23;;;18.80;;
13421;SDS011;6782;55.904;13.396;2023-02-28T10:22:11;22.93;;;19.30;;
13421;SDS011;6782;55.904;13.396;2023-02-28T10:25:00;21.40;;;18.87;;
13421;SDS011;6782;55.904;13.396;2023-02-28T10:27:49;22.03;;;19.47;;
13421;SDS011;6782;55.904;13.396;2023-02-28T10:30:36;22.47;;;19.13;;
13421;SDS011;6782;55.904;13.396;2023-02-28T10:33:28;19.60;;;17.60;;
13421;SDS011;6782;55.904;13.396;2023-02-28T10:36:18;20.50;;;18.30;;
13421;SDS011;6782;55.904;13.396;2023-02-28T10:42:26;20.00;;;17.80;;
13421;SDS011;6782;55.904;13.396;2023-02-28T10:45:15;19.20;;;17.10;;
13421;SDS011;6782;55.904;13.396;2023-02-28T10:48:04;19.33;;;17.23;;
13421;SDS011;6782;55.904;13.396;2023-02-28T10:51:11;19.37;;;17.40;;
13421;SDS011;6782;55.904;13.396;2023-02-28T10:54:00;19.20;;;17.07;;
13421;SDS011;6782;55.904;13.396;2023-02-28T10:57:08;17.97;;;16.07;;
13421;SDS011;6782;55.904;13.396;2023-02-28T11:00:07;18.17;;;16.30;;
13421;SDS011;6782;55.904;13.396;2023-02-28T11:03:01;19.13;;;17.13;;
13421;SDS011;6782;55.904;13.396;2023-02-28T11:06:08;18.13;;;16.33;;
13421;SDS011;6782;55.904;13.396;2023-02-28T11:09:03;17.87;;;15.70;;
13421;SDS011;6782;55.904;13.396;2023-02-28T11:11:59;17.70;;;15.77;;
13421;SDS011;6782;55.904;13.396;2023-02-28T11:14:49;17.53;;;15.50;;
13421;SDS011;6782;55.904;13.396;2023-02-28T11:17:38;19.00;;;16.67;;
13421;SDS011;6782;55.904;13.396;2023-02-28T11:20:27;17.37;;;15.57;;
13421;SDS011;6782;55.904;13.396;2023-02-28T11:23:15;17.80;;;15.87;;
13421;SDS011;6782;55.904;13.396;2023-02-28T11:26:04;17.47;;;15.67;;
13421;SDS011;6782;55.904;13.396;2023-02-28T11:29:02;18.20;;;16.30;;
13421;SDS011;6782;55.904;13.396;2023-02-28T11:32:05;17.13;;;15.13;;
13421;SDS011;6782;55.904;13.396;2023-02-28T11:35:02;17.30;;;15.50;;
13421;SDS011;6782;55.904;13.396;2023-02-28T11:37:51;18.43;;;16.47;;
13421;SDS011;6782;55.904;13.396;2023-02-28T11:40:41;18.47;;;16.27;;
13421;SDS011;6782;55.904;13.396;2023-02-28T11:43:37;16.97;;;15.27;;
13421;SDS011;6782;55.904;13.396;2023-02-28T11:46:39;16.40;;;14.10;;
13421;SDS011;6782;55.904;13.396;2023-02-28T11:49:34;17.03;;;15.43;;
13421;SDS011;6782;55.904;13.396;2023-02-28T11:52:30;16.37;;;14.73;;
13421;SDS011;6782;55.904;13.396;2023-02-28T11:55:25;15.90;;;14.40;;
13421;SDS011;6782;55.904;13.396;2023-02-28T12:01:32;13.07;;;11.80;;
13421;SDS011;6782;55.904;13.396;2023-02-28T12:04:36;13.73;;;11.83;;
13421;SDS011;6782;55.904;13.396;2023-02-28T12:07:35;11.70;;;10.63;;
13421;SDS011;6782;55.904;13.396;2023-02-28T12:10:30;11.27;;;10.13;;
13421;SDS011;6782;55.904;13.396;2023-02-28T12:13:24;10.20;;;9.20;;
13421;SDS011;6782;55.904;13.396;2023-02-28T12:19:44;8.00;;;7.20;;
13421;SDS011;6782;55.904;13.396;2023-02-28T12:22:39;8.40;;;7.30;;
13421;SDS011;6782;55.904;13.396;2023-02-28T12:25:48;7.60;;;6.67;;
13421;SDS011;6782;55.904;13.396;2023-02-28T12:28:43;7.73;;;6.17;;
13421;SDS011;6782;55.904;13.396;2023-02-28T12:31:35;7.20;;;5.70;;
13421;SDS011;6782;55.904;13.396;2023-02-28T12:34:28;6.57;;;5.80;;
13421;SDS011;6782;55.904;13.396;2023-02-28T12:37:27;6.17;;;5.57;;
13421;SDS011;6782;55.904;13.396;2023-02-28T12:40:19;6.63;;;5.93;;
13421;SDS011;6782;55.904;13.396;2023-02-28T12:43:09;5.20;;;4.70;;
13421;SDS011;6782;55.904;13.396;2023-02-28T12:46:02;5.03;;;4.37;;
13421;SDS011;6782;55.904;13.396;2023-02-28T12:48:57;6.20;;;4.70;;
13421;SDS011;6782;55.904;13.396;2023-02-28T12:51:47;5.37;;;4.27;;
13421;SDS011;6782;55.904;13.396;2023-02-28T12:54:39;4.67;;;4.27;;
13421;SDS011;6782;55.904;13.396;2023-02-28T12:57:32;4.93;;;4.53;;
13421;SDS011;6782;55.904;13.396;2023-02-28T13:00:29;6.83;;;4.73;;
13421;SDS011;6782;55.904;13.396;2023-02-28T13:03:29;5.20;;;4.70;;
13421;SDS011;6782;55.904;13.396;2023-02-28T13:06:31;4.93;;;4.53;;
13421;SDS011;6782;55.904;13.396;2023-02-28T13:09:28;6.40;;;4.40;;
13421;SDS011;6782;55.904;13.396;2023-02-28T13:12:17;5.13;;;4.10;;
13421;SDS011;6782;55.904;13.396;2023-02-28T13:15:07;3.70;;;2.83;;
13421;SDS011;6782;55.904;13.396;2023-02-28T13:18:20;4.87;;;2.80;;
13421;SDS011;6782;55.904;13.396;2023-02-28T13:21:22;5.80;;;3.07;;
13421;SDS011;6782;55.904;13.396;2023-02-28T13:24:11;4.83;;;2.67;;
13421;SDS011;6782;55.904;13.396;2023-02-28T13:27:24;4.30;;;3.10;;
13421;SDS011;6782;55.904;13.396;2023-02-28T13:40:30;2.80;;;2.60;;
13421;SDS011;6782;55.904;13.396;2023-02-28T13:43:24;3.30;;;2.73;;
13421;SDS011;6782;55.904;13.396;2023-02-28T13:50:15;3.73;;;2.97;;
13421;SDS011;6782;55.904;13.396;2023-02-28T13:56:40;5.67;;;3.23;;
13421;SDS011;6782;55.904;13.396;2023-02-28T13:59:39;3.90;;;2.40;;
13421;SDS011;6782;55.904;13.396;2023-02-28T14:06:16;6.03;;;3.00;;
13421;SDS011;6782;55.904;13.396;2023-02-28T14:09:16;4.97;;;2.60;;
13421;SDS011;6782;55.904;13.396;2023-02-28T14:18:48;2.37;;;2.10;;
13421;SDS011;6782;55.904;13.396;2023-02-28T14:21:38;2.40;;;2.10;;
13421;SDS011;6782;55.904;13.396;2023-02-28T14:24:59;3.33;;;2.10;;
13421;SDS011;6782;55.904;13.396;2023-02-28T14:27:58;3.40;;;2.20;;
13421;SDS011;6782;55.904;13.396;2023-02-28T14:30:59;3.30;;;2.20;;
13421;SDS011;6782;55.904;13.396;2023-02-28T14:33:57;3.80;;;2.30;;
13421;SDS011;6782;55.904;13.396;2023-02-28T14:36:58;3.03;;;2.23;;
13421;SDS011;6782;55.904;13.396;2023-02-28T14:39:48;2.50;;;2.27;;
13421;SDS011;6782;55.904;13.396;2023-02-28T14:42:37;2.10;;;1.90;;
13421;SDS011;6782;55.904;13.396;2023-02-28T14:45:30;6.07;;;2.00;;
13421;SDS011;6782;55.904;13.396;2023-02-28T14:48:21;1.80;;;1.60;;
13421;SDS011;6782;55.904;13.396;2023-02-28T14:51:11;1.60;;;1.50;;
13421;SDS011;6782;55.904;13.396;2023-02-28T14:54:04;2.23;;;1.60;;
13421;SDS011;6782;55.904;13.396;2023-02-28T14:56:51;2.10;;;1.80;;
13421;SDS011;6782;55.904;13.396;2023-02-28T14:59:39;4.47;;;1.80;;
13421;SDS011;6782;55.904;13.396;2023-02-28T15:02:26;2.37;;;1.83;;
13421;SDS011;6782;55.904;13.396;2023-02-28T15:05:24;3.40;;;1.40;;
13421;SDS011;6782;55.904;13.396;2023-02-28T15:08:14;1.97;;;1.50;;
13421;SDS011;6782;55.904;13.396;2023-02-28T15:11:03;1.50;;;1.40;;
13421;SDS011;6782;55.904;13.396;2023-02-28T15:13:53;6.70;;;2.20;;
13421;SDS011;6782;55.904;13.396;2023-02-28T15:16:42;2.53;;;1.80;;
13421;SDS011;6782;55.904;13.396;2023-02-28T15:19:32;1.50;;;1.40;;
13421;SDS011;6782;55.904;13.396;2023-02-28T15:22:26;2.50;;;1.70;;
13421;SDS011;6782;55.904;13.396;2023-02-28T15:25:18;1.60;;;1.40;;
13421;SDS011;6782;55.904;13.396;2023-02-28T15:28:10;1.57;;;1.30;;
13421;SDS011;6782;55.904;13.396;2023-02-28T15:31:01;1.37;;;1.27;;
13421;SDS011;6782;55.904;13.396;2023-02-28T15:34:04;1.27;;;1.10;;
13421;SDS011;6782;55.904;13.396;2023-02-28T15:36:52;1.30;;;1.20;;
13421;SDS011;6782;55.904;13.396;2023-02-28T15:39:42;17.17;;;2.30;;
13421;SDS011;6782;55.904;13.396;2023-02-28T15:42:31;1.10;;;1.00;;
13421;SDS011;6782;55.904;13.396;2023-02-28T15:45:28;4.13;;;1.30;;
13421;SDS011;6782;55.904;13.396;2023-02-28T15:48:24;5.20;;;1.40;;
13421;SDS011;6782;55.904;13.396;2023-02-28T15:51:15;1.67;;;1.20;;
13421;SDS011;6782;55.904;13.396;2023-02-28T15:54:06;1.27;;;1.17;;
13421;SDS011;6782;55.904;13.396;2023-02-28T15:56:57;2.47;;;1.40;;
13421;SDS011;6782;55.904;13.396;2023-02-28T15:59:49;4.10;;;1.53;;
13421;SDS011;6782;55.904;13.396;2023-02-28T16:02:39;1.43;;;1.10;;
13421;SDS011;6782;55.904;13.396;2023-02-28T16:05:27;5.47;;;1.83;;
13421;SDS011;6782;55.904;13.396;2023-02-28T16:08:17;2.30;;;1.20;;
13421;SDS011;6782;55.904;13.396;2023-02-28T16:11:04;2.33;;;1.33;;
13421;SDS011;6782;55.904;13.396;2023-02-28T16:13:53;2.87;;;1.00;;
13421;SDS011;6782;55.904;13.396;2023-02-28T16:16:42;1.13;;;1.00;;
13421;SDS011;6782;55.904;13.396;2023-02-28T16:19:30;1.03;;;0.93;;
13421;SDS011;6782;55.904;13.396;2023-02-28T16:22:18;7.03;;;2.00;;
13421;SDS011;6782;55.904;13.396;2023-02-28T16:25:06;1.30;;;1.20;;
13421;SDS011;6782;55.904;13.396;2023-02-28T16:27:54;2.90;;;1.30;;
13421;SDS011;6782;55.904;13.396;2023-02-28T16:30:44;2.20;;;1.10;;
13421;SDS011;6782;55.904;13.396;2023-02-28T16:33:31;1.50;;;1.40;;
13421;SDS011;6782;55.904;13.396;2023-02-28T16:36:20;3.20;;;1.30;;
13421;SDS011;6782;55.904;13.396;2023-02-28T16:39:10;2.50;;;1.40;;
13421;SDS011;6782;55.904;13.396;2023-02-28T16:41:57;1.53;;;1.17;;
13421;SDS011;6782;55.904;13.396;2023-02-28T16:44:44;1.70;;;1.10;;
13421;SDS011;6782;55.904;13.396;2023-02-28T16:47:34;1.00;;;1.00;;
13421;SDS011;6782;55.904;13.396;2023-02-28T16:50:21;3.87;;;1.03;;
13421;SDS011;6782;55.904;13.396;2023-02-28T16:53:10;1.97;;;1.23;;